sensor_id;sensor_type;location;lat;lon;timestamp;P1;durP1;ratioP1;P2;durP2;ratioP2
20908;SDS011;10614;53.198;6.570;2023-05-29T00:00:49;21.75;;;3.50;;
20908;SDS011;10614;53.198;6.570;2023-05-29T00:02:51;13.60;;;2.53;;
20908;SDS011;10614;53.198;6.570;2023-05-29T00:04:53;10.60;;;2.35;;
20908;SDS011;10614;53.198;6.570;2023-05-29T00:06:56;10.00;;;2.30;;
20908;SDS011;10614;53.198;6.570;2023-05-29T00:08:58;10.15;;;2.30;;
20908;SDS011;10614;53.198;6.570;2023-05-29T00:11:03;12.70;;;2.33;;
20908;SDS011;10614;53.198;6.570;2023-05-29T00:13:06;13.07;;;3.03;;
20908;SDS011;10614;53.198;6.570;2023-05-29T00:17:55;10.95;;;2.13;;
20908;SDS011;10614;53.198;6.570;2023-05-29T00:19:57;13.32;;;2.67;;
20908;SDS011;10614;53.198;6.570;2023-05-29T00:22:01;16.17;;;2.75;;
20908;SDS011;10614;53.198;6.570;2023-05-29T00:24:03;15.20;;;3.08;;
20908;SDS011;10614;53.198;6.570;2023-05-29T00:26:05;8.23;;;2.05;;
20908;SDS011;10614;53.198;6.570;2023-05-29T00:28:07;11.13;;;2.42;;
20908;SDS011;10614;53.198;6.570;2023-05-29T00:30:12;11.05;;;2.63;;
20908;SDS011;10614;53.198;6.570;2023-05-29T00:32:14;11.05;;;2.42;;
20908;SDS011;10614;53.198;6.570;2023-05-29T00:34:22;13.48;;;2.63;;
20908;SDS011;10614;53.198;6.570;2023-05-29T00:36:26;10.88;;;2.33;;
20908;SDS011;10614;53.198;6.570;2023-05-29T00:38:29;13.43;;;2.53;;
20908;SDS011;10614;53.198;6.570;2023-05-29T00:40:31;11.65;;;2.28;;
20908;SDS011;10614;53.198;6.570;2023-05-29T00:42:33;7.38;;;1.90;;
20908;SDS011;10614;53.198;6.570;2023-05-29T00:44:35;10.60;;;2.50;;
20908;SDS011;10614;53.198;6.570;2023-05-29T00:46:38;12.50;;;2.67;;
20908;SDS011;10614;53.198;6.570;2023-05-29T00:48:40;10.00;;;1.92;;
20908;SDS011;10614;53.198;6.570;2023-05-29T00:50:45;11.68;;;2.20;;
20908;SDS011;10614;53.198;6.570;2023-05-29T00:52:48;10.48;;;2.20;;
20908;SDS011;10614;53.198;6.570;2023-05-29T00:54:51;14.32;;;2.53;;
20908;SDS011;10614;53.198;6.570;2023-05-29T00:56:54;15.45;;;2.88;;
20908;SDS011;10614;53.198;6.570;2023-05-29T00:58:58;16.85;;;3.35;;
20908;SDS011;10614;53.198;6.570;2023-05-29T01:01:00;11.63;;;2.72;;
20908;SDS011;10614;53.198;6.570;2023-05-29T01:03:03;15.30;;;2.97;;
20908;SDS011;10614;53.198;6.570;2023-05-29T01:05:07;13.07;;;2.50;;
20908;SDS011;10614;53.198;6.570;2023-05-29T01:07:14;9.02;;;2.25;;
20908;SDS011;10614;53.198;6.570;2023-05-29T01:11:19;14.27;;;2.63;;
20908;SDS011;10614;53.198;6.570;2023-05-29T01:13:29;14.13;;;2.58;;
20908;SDS011;10614;53.198;6.570;2023-05-29T01:15:40;12.00;;;2.40;;
20908;SDS011;10614;53.198;6.570;2023-05-29T01:17:51;13.52;;;2.85;;
20908;SDS011;10614;53.198;6.570;2023-05-29T01:20:10;16.90;;;2.70;;
20908;SDS011;10614;53.198;6.570;2023-05-29T01:22:25;12.07;;;2.53;;
20908;SDS011;10614;53.198;6.570;2023-05-29T01:24:38;17.00;;;3.25;;
20908;SDS011;10614;53.198;6.570;2023-05-29T01:26:54;12.43;;;2.97;;
20908;SDS011;10614;53.198;6.570;2023-05-29T01:29:00;14.98;;;2.80;;
20908;SDS011;10614;53.198;6.570;2023-05-29T01:31:07;14.02;;;2.90;;
20908;SDS011;10614;53.198;6.570;2023-05-29T01:33:11;12.03;;;2.40;;
20908;SDS011;10614;53.198;6.570;2023-05-29T01:35:14;8.77;;;2.10;;
20908;SDS011;10614;53.198;6.570;2023-05-29T01:37:16;11.88;;;2.13;;
20908;SDS011;10614;53.198;6.570;2023-05-29T02:14:48;8.90;;;2.45;;
20908;SDS011;10614;53.198;6.570;2023-05-29T02:16:51;11.25;;;2.80;;
20908;SDS011;10614;53.198;6.570;2023-05-29T02:18:54;17.08;;;2.92;;
20908;SDS011;10614;53.198;6.570;2023-05-29T02:20:56;12.10;;;3.20;;
20908;SDS011;10614;53.198;6.570;2023-05-29T02:22:58;17.35;;;3.05;;
20908;SDS011;10614;53.198;6.570;2023-05-29T02:25:01;14.82;;;2.95;;
20908;SDS011;10614;53.198;6.570;2023-05-29T05:03:08;11.00;;;2.67;;
20908;SDS011;10614;53.198;6.570;2023-05-29T05:05:11;11.38;;;2.75;;
20908;SDS011;10614;53.198;6.570;2023-05-29T05:23:22;13.68;;;3.10;;
20908;SDS011;10614;53.198;6.570;2023-05-29T05:29:44;15.35;;;3.08;;
20908;SDS011;10614;53.198;6.570;2023-05-29T05:58:46;9.73;;;2.47;;
20908;SDS011;10614;53.198;6.570;2023-05-29T08:33:17;18.92;;;4.07;;
20908;SDS011;10614;53.198;6.570;2023-05-29T08:35:19;13.63;;;3.70;;
20908;SDS011;10614;53.198;6.570;2023-05-29T08:37:22;17.42;;;3.80;;
20908;SDS011;10614;53.198;6.570;2023-05-29T08:39:24;16.88;;;3.20;;
20908;SDS011;10614;53.198;6.570;2023-05-29T08:41:27;16.10;;;3.40;;
20908;SDS011;10614;53.198;6.570;2023-05-29T08:43:37;16.45;;;3.50;;
20908;SDS011;10614;53.198;6.570;2023-05-29T08:45:42;17.98;;;4.18;;
20908;SDS011;10614;53.198;6.570;2023-05-29T09:22:29;12.65;;;3.17;;
20908;SDS011;10614;53.198;6.570;2023-05-29T09:24:33;15.80;;;3.65;;
20908;SDS011;10614;53.198;6.570;2023-05-29T09:26:47;14.80;;;3.45;;
20908;SDS011;10614;53.198;6.570;2023-05-29T09:28:59;22.27;;;4.38;;
20908;SDS011;10614;53.198;6.570;2023-05-29T09:31:13;21.63;;;3.95;;
20908;SDS011;10614;53.198;6.570;2023-05-29T09:35:40;15.80;;;4.00;;
20908;SDS011;10614;53.198;6.570;2023-05-29T09:38:04;13.35;;;3.90;;
20908;SDS011;10614;53.198;6.570;2023-05-29T09:40:07;18.02;;;4.43;;
20908;SDS011;10614;53.198;6.570;2023-05-29T09:42:39;19.85;;;4.18;;
20908;SDS011;10614;53.198;6.570;2023-05-29T09:45:55;16.80;;;3.78;;
20908;SDS011;10614;53.198;6.570;2023-05-29T09:48:32;14.80;;;3.75;;
20908;SDS011;10614;53.198;6.570;2023-05-29T09:51:22;12.30;;;3.30;;
20908;SDS011;10614;53.198;6.570;2023-05-29T09:57:04;14.93;;;3.55;;
20908;SDS011;10614;53.198;6.570;2023-05-29T09:59:12;15.25;;;3.53;;
20908;SDS011;10614;53.198;6.570;2023-05-29T10:01:21;19.98;;;4.13;;
20908;SDS011;10614;53.198;6.570;2023-05-29T10:03:33;19.70;;;3.83;;
20908;SDS011;10614;53.198;6.570;2023-05-29T10:05:53;19.38;;;4.22;;
20908;SDS011;10614;53.198;6.570;2023-05-29T10:08:11;11.57;;;3.28;;
20908;SDS011;10614;53.198;6.570;2023-05-29T10:10:24;16.23;;;3.47;;
20908;SDS011;10614;53.198;6.570;2023-05-29T10:12:47;14.98;;;3.92;;
20908;SDS011;10614;53.198;6.570;2023-05-29T10:14:59;16.50;;;4.20;;
20908;SDS011;10614;53.198;6.570;2023-05-29T10:17:12;14.38;;;3.75;;
20908;SDS011;10614;53.198;6.570;2023-05-29T10:19:22;14.05;;;3.60;;
20908;SDS011;10614;53.198;6.570;2023-05-29T10:21:32;19.77;;;3.90;;
20908;SDS011;10614;53.198;6.570;2023-05-29T10:23:43;12.80;;;3.40;;
20908;SDS011;10614;53.198;6.570;2023-05-29T10:25:49;12.45;;;3.60;;
20908;SDS011;10614;53.198;6.570;2023-05-29T10:27:59;18.23;;;3.50;;
20908;SDS011;10614;53.198;6.570;2023-05-29T10:30:10;21.70;;;5.00;;
20908;SDS011;10614;53.198;6.570;2023-05-29T10:32:27;20.88;;;4.18;;
20908;SDS011;10614;53.198;6.570;2023-05-29T10:34:41;16.08;;;3.67;;
20908;SDS011;10614;53.198;6.570;2023-05-29T10:36:46;13.20;;;3.28;;
20908;SDS011;10614;53.198;6.570;2023-05-29T10:39:00;9.23;;;3.40;;
20908;SDS011;10614;53.198;6.570;2023-05-29T10:43:41;20.08;;;3.53;;
20908;SDS011;10614;53.198;6.570;2023-05-29T10:45:52;14.80;;;3.90;;
20908;SDS011;10614;53.198;6.570;2023-05-29T10:47:54;18.73;;;3.83;;
20908;SDS011;10614;53.198;6.570;2023-05-29T10:49:59;24.83;;;4.28;;
20908;SDS011;10614;53.198;6.570;2023-05-29T10:52:03;17.23;;;3.95;;
20908;SDS011;10614;53.198;6.570;2023-05-29T10:54:09;17.42;;;4.22;;
20908;SDS011;10614;53.198;6.570;2023-05-29T10:56:14;14.38;;;3.80;;
20908;SDS011;10614;53.198;6.570;2023-05-29T11:00:55;10.65;;;3.45;;
20908;SDS011;10614;53.198;6.570;2023-05-29T11:03:01;13.13;;;3.33;;
20908;SDS011;10614;53.198;6.570;2023-05-29T11:07:53;16.85;;;3.85;;
20908;SDS011;10614;53.198;6.570;2023-05-29T11:10:13;21.23;;;4.18;;
20908;SDS011;10614;53.198;6.570;2023-05-29T11:12:22;17.95;;;3.92;;
20908;SDS011;10614;53.198;6.570;2023-05-29T11:14:45;16.00;;;3.75;;
20908;SDS011;10614;53.198;6.570;2023-05-29T11:16:49;19.25;;;4.15;;
20908;SDS011;10614;53.198;6.570;2023-05-29T11:19:09;21.02;;;4.03;;
20908;SDS011;10614;53.198;6.570;2023-05-29T11:21:28;25.77;;;4.13;;
20908;SDS011;10614;53.198;6.570;2023-05-29T11:23:33;17.67;;;4.05;;
20908;SDS011;10614;53.198;6.570;2023-05-29T11:25:44;43.45;;;6.72;;
20908;SDS011;10614;53.198;6.570;2023-05-29T11:27:48;15.45;;;3.35;;
20908;SDS011;10614;53.198;6.570;2023-05-29T11:29:55;17.30;;;3.92;;
20908;SDS011;10614;53.198;6.570;2023-05-29T11:32:08;13.43;;;3.60;;
20908;SDS011;10614;53.198;6.570;2023-05-29T11:34:19;22.42;;;3.92;;
20908;SDS011;10614;53.198;6.570;2023-05-29T11:36:34;14.52;;;3.38;;
20908;SDS011;10614;53.198;6.570;2023-05-29T11:38:43;10.82;;;2.80;;
20908;SDS011;10614;53.198;6.570;2023-05-29T11:40:58;15.15;;;3.40;;
20908;SDS011;10614;53.198;6.570;2023-05-29T11:43:11;15.93;;;3.70;;
20908;SDS011;10614;53.198;6.570;2023-05-29T11:45:31;10.63;;;3.28;;
20908;SDS011;10614;53.198;6.570;2023-05-29T11:47:50;12.32;;;3.10;;
20908;SDS011;10614;53.198;6.570;2023-05-29T11:50:17;13.10;;;3.45;;
20908;SDS011;10614;53.198;6.570;2023-05-29T11:52:22;15.18;;;3.30;;
20908;SDS011;10614;53.198;6.570;2023-05-29T11:54:29;15.27;;;3.70;;
20908;SDS011;10614;53.198;6.570;2023-05-29T11:56:48;15.38;;;3.45;;
20908;SDS011;10614;53.198;6.570;2023-05-29T11:58:53;14.85;;;3.08;;
20908;SDS011;10614;53.198;6.570;2023-05-29T12:01:03;17.73;;;3.80;;
20908;SDS011;10614;53.198;6.570;2023-05-29T12:03:09;15.85;;;3.53;;
20908;SDS011;10614;53.198;6.570;2023-05-29T12:05:22;11.55;;;3.22;;
20908;SDS011;10614;53.198;6.570;2023-05-29T12:07:28;13.13;;;3.40;;
20908;SDS011;10614;53.198;6.570;2023-05-29T12:09:31;16.13;;;3.33;;
20908;SDS011;10614;53.198;6.570;2023-05-29T12:11:36;12.57;;;3.70;;
20908;SDS011;10614;53.198;6.570;2023-05-29T12:13:43;14.82;;;3.65;;
20908;SDS011;10614;53.198;6.570;2023-05-29T12:15:46;16.00;;;3.38;;
20908;SDS011;10614;53.198;6.570;2023-05-29T12:17:52;12.17;;;3.20;;
20908;SDS011;10614;53.198;6.570;2023-05-29T12:19:58;13.27;;;3.40;;
20908;SDS011;10614;53.198;6.570;2023-05-29T12:22:00;13.55;;;3.22;;
20908;SDS011;10614;53.198;6.570;2023-05-29T12:24:17;12.88;;;3.17;;
20908;SDS011;10614;53.198;6.570;2023-05-29T12:26:23;17.95;;;3.28;;
20908;SDS011;10614;53.198;6.570;2023-05-29T12:28:28;11.35;;;2.97;;
20908;SDS011;10614;53.198;6.570;2023-05-29T12:30:39;18.08;;;3.30;;
20908;SDS011;10614;53.198;6.570;2023-05-29T12:32:51;11.50;;;3.28;;
20908;SDS011;10614;53.198;6.570;2023-05-29T12:34:55;10.38;;;2.92;;
20908;SDS011;10614;53.198;6.570;2023-05-29T12:37:07;13.82;;;3.13;;
20908;SDS011;10614;53.198;6.570;2023-05-29T12:39:14;14.68;;;3.85;;
20908;SDS011;10614;53.198;6.570;2023-05-29T12:41:22;12.02;;;2.85;;
20908;SDS011;10614;53.198;6.570;2023-05-29T12:43:31;10.73;;;2.97;;
20908;SDS011;10614;53.198;6.570;2023-05-29T12:45:37;10.13;;;2.92;;
20908;SDS011;10614;53.198;6.570;2023-05-29T12:47:46;13.02;;;3.17;;
20908;SDS011;10614;53.198;6.570;2023-05-29T12:49:54;10.63;;;2.73;;
20908;SDS011;10614;53.198;6.570;2023-05-29T12:52:04;11.23;;;2.97;;
20908;SDS011;10614;53.198;6.570;2023-05-29T12:54:06;12.40;;;2.95;;
20908;SDS011;10614;53.198;6.570;2023-05-29T12:56:09;11.48;;;2.90;;
20908;SDS011;10614;53.198;6.570;2023-05-29T12:58:14;11.38;;;3.03;;
20908;SDS011;10614;53.198;6.570;2023-05-29T13:00:17;16.17;;;3.28;;
20908;SDS011;10614;53.198;6.570;2023-05-29T13:02:20;12.27;;;3.05;;
20908;SDS011;10614;53.198;6.570;2023-05-29T13:04:27;12.45;;;3.00;;
20908;SDS011;10614;53.198;6.570;2023-05-29T13:06:31;9.85;;;3.08;;
20908;SDS011;10614;53.198;6.570;2023-05-29T13:08:34;12.02;;;3.33;;
20908;SDS011;10614;53.198;6.570;2023-05-29T13:10:36;10.45;;;2.90;;
20908;SDS011;10614;53.198;6.570;2023-05-29T13:12:39;13.10;;;3.00;;
20908;SDS011;10614;53.198;6.570;2023-05-29T13:14:42;13.57;;;3.05;;
20908;SDS011;10614;53.198;6.570;2023-05-29T13:16:44;12.15;;;2.67;;
20908;SDS011;10614;53.198;6.570;2023-05-29T13:18:46;12.23;;;2.70;;
20908;SDS011;10614;53.198;6.570;2023-05-29T13:20:50;11.25;;;2.90;;
20908;SDS011;10614;53.198;6.570;2023-05-29T13:22:52;10.82;;;2.55;;
20908;SDS011;10614;53.198;6.570;2023-05-29T13:24:55;17.50;;;2.90;;
20908;SDS011;10614;53.198;6.570;2023-05-29T13:26:57;12.68;;;3.10;;
20908;SDS011;10614;53.198;6.570;2023-05-29T13:29:00;16.25;;;3.05;;
20908;SDS011;10614;53.198;6.570;2023-05-29T13:31:03;13.95;;;2.90;;
20908;SDS011;10614;53.198;6.570;2023-05-29T13:33:05;10.65;;;3.00;;
20908;SDS011;10614;53.198;6.570;2023-05-29T13:35:14;11.40;;;2.35;;
20908;SDS011;10614;53.198;6.570;2023-05-29T13:39:29;9.07;;;2.80;;
20908;SDS011;10614;53.198;6.570;2023-05-29T13:41:33;13.82;;;2.70;;
20908;SDS011;10614;53.198;6.570;2023-05-29T13:43:35;13.20;;;3.22;;
20908;SDS011;10614;53.198;6.570;2023-05-29T13:45:38;10.32;;;2.30;;
20908;SDS011;10614;53.198;6.570;2023-05-29T13:47:41;9.75;;;2.72;;
20908;SDS011;10614;53.198;6.570;2023-05-29T13:49:43;9.90;;;2.60;;
20908;SDS011;10614;53.198;6.570;2023-05-29T13:51:46;8.85;;;2.83;;
20908;SDS011;10614;53.198;6.570;2023-05-29T13:53:50;9.68;;;2.83;;
20908;SDS011;10614;53.198;6.570;2023-05-29T13:55:55;8.55;;;2.53;;
20908;SDS011;10614;53.198;6.570;2023-05-29T13:57:57;10.40;;;2.22;;
20908;SDS011;10614;53.198;6.570;2023-05-29T13:59:59;10.05;;;2.65;;
20908;SDS011;10614;53.198;6.570;2023-05-29T14:02:04;16.98;;;3.03;;
20908;SDS011;10614;53.198;6.570;2023-05-29T14:04:08;11.90;;;2.80;;
20908;SDS011;10614;53.198;6.570;2023-05-29T14:06:12;12.52;;;2.80;;
20908;SDS011;10614;53.198;6.570;2023-05-29T14:08:14;19.42;;;3.20;;
20908;SDS011;10614;53.198;6.570;2023-05-29T14:10:18;11.32;;;2.55;;
20908;SDS011;10614;53.198;6.570;2023-05-29T14:12:20;8.32;;;2.60;;
20908;SDS011;10614;53.198;6.570;2023-05-29T14:14:23;9.45;;;2.55;;
20908;SDS011;10614;53.198;6.570;2023-05-29T14:16:28;7.97;;;2.00;;
20908;SDS011;10614;53.198;6.570;2023-05-29T14:18:31;12.55;;;2.85;;
20908;SDS011;10614;53.198;6.570;2023-05-29T14:20:34;12.02;;;2.65;;
20908;SDS011;10614;53.198;6.570;2023-05-29T14:22:36;16.48;;;3.45;;
20908;SDS011;10614;53.198;6.570;2023-05-29T14:24:38;8.25;;;2.58;;
20908;SDS011;10614;53.198;6.570;2023-05-29T14:26:42;12.43;;;2.85;;
20908;SDS011;10614;53.198;6.570;2023-05-29T14:28:47;15.55;;;2.85;;
20908;SDS011;10614;53.198;6.570;2023-05-29T14:30:49;12.85;;;2.45;;
20908;SDS011;10614;53.198;6.570;2023-05-29T14:32:51;9.40;;;2.58;;
20908;SDS011;10614;53.198;6.570;2023-05-29T14:34:58;10.77;;;2.75;;
20908;SDS011;10614;53.198;6.570;2023-05-29T14:37:01;9.48;;;2.50;;
20908;SDS011;10614;53.198;6.570;2023-05-29T14:39:04;8.93;;;2.25;;
20908;SDS011;10614;53.198;6.570;2023-05-29T14:41:07;9.82;;;2.67;;
20908;SDS011;10614;53.198;6.570;2023-05-29T14:43:10;10.73;;;2.50;;
20908;SDS011;10614;53.198;6.570;2023-05-29T14:45:12;10.63;;;2.40;;
20908;SDS011;10614;53.198;6.570;2023-05-29T14:47:15;8.93;;;2.53;;
20908;SDS011;10614;53.198;6.570;2023-05-29T14:49:18;9.43;;;2.65;;
20908;SDS011;10614;53.198;6.570;2023-05-29T14:51:26;11.95;;;3.05;;
20908;SDS011;10614;53.198;6.570;2023-05-29T14:53:29;12.63;;;2.63;;
20908;SDS011;10614;53.198;6.570;2023-05-29T14:55:41;9.55;;;2.50;;
20908;SDS011;10614;53.198;6.570;2023-05-29T14:57:43;10.20;;;2.33;;
20908;SDS011;10614;53.198;6.570;2023-05-29T14:59:47;14.20;;;2.58;;
20908;SDS011;10614;53.198;6.570;2023-05-29T15:01:50;9.70;;;2.45;;
20908;SDS011;10614;53.198;6.570;2023-05-29T15:03:53;8.95;;;2.65;;
20908;SDS011;10614;53.198;6.570;2023-05-29T15:05:56;16.02;;;2.67;;
20908;SDS011;10614;53.198;6.570;2023-05-29T15:07:58;15.82;;;3.00;;
20908;SDS011;10614;53.198;6.570;2023-05-29T15:10:00;16.73;;;2.85;;
20908;SDS011;10614;53.198;6.570;2023-05-29T15:12:03;10.00;;;2.30;;
20908;SDS011;10614;53.198;6.570;2023-05-29T15:14:07;12.75;;;2.58;;
20908;SDS011;10614;53.198;6.570;2023-05-29T15:16:12;9.55;;;2.55;;
20908;SDS011;10614;53.198;6.570;2023-05-29T15:18:16;11.30;;;2.85;;
20908;SDS011;10614;53.198;6.570;2023-05-29T15:20:19;9.88;;;2.35;;
20908;SDS011;10614;53.198;6.570;2023-05-29T15:22:22;13.73;;;2.97;;
20908;SDS011;10614;53.198;6.570;2023-05-29T15:24:24;12.30;;;2.78;;
20908;SDS011;10614;53.198;6.570;2023-05-29T15:26:29;9.93;;;2.73;;
20908;SDS011;10614;53.198;6.570;2023-05-29T15:28:34;10.82;;;2.42;;
20908;SDS011;10614;53.198;6.570;2023-05-29T15:30:38;11.60;;;2.47;;
20908;SDS011;10614;53.198;6.570;2023-05-29T15:32:44;10.93;;;2.58;;
20908;SDS011;10614;53.198;6.570;2023-05-29T15:34:50;11.18;;;2.85;;
20908;SDS011;10614;53.198;6.570;2023-05-29T15:36:53;13.40;;;2.97;;
20908;SDS011;10614;53.198;6.570;2023-05-29T15:38:56;10.70;;;2.55;;
20908;SDS011;10614;53.198;6.570;2023-05-29T15:40:58;15.75;;;3.38;;
20908;SDS011;10614;53.198;6.570;2023-05-29T15:43:00;13.82;;;3.20;;
20908;SDS011;10614;53.198;6.570;2023-05-29T15:47:13;7.85;;;2.10;;
20908;SDS011;10614;53.198;6.570;2023-05-29T15:49:16;11.02;;;2.90;;
20908;SDS011;10614;53.198;6.570;2023-05-29T15:51:19;10.80;;;2.70;;
20908;SDS011;10614;53.198;6.570;2023-05-29T15:53:22;13.77;;;3.30;;
20908;SDS011;10614;53.198;6.570;2023-05-29T15:55:24;9.80;;;2.30;;
20908;SDS011;10614;53.198;6.570;2023-05-29T15:57:26;11.70;;;2.83;;
20908;SDS011;10614;53.198;6.570;2023-05-29T15:59:29;15.10;;;2.80;;
20908;SDS011;10614;53.198;6.570;2023-05-29T16:01:31;12.32;;;3.13;;
20908;SDS011;10614;53.198;6.570;2023-05-29T16:03:33;11.40;;;2.78;;
20908;SDS011;10614;53.198;6.570;2023-05-29T16:05:40;9.57;;;2.67;;
20908;SDS011;10614;53.198;6.570;2023-05-29T16:07:42;14.73;;;2.90;;
20908;SDS011;10614;53.198;6.570;2023-05-29T16:09:47;14.50;;;3.00;;
20908;SDS011;10614;53.198;6.570;2023-05-29T16:11:52;12.23;;;2.95;;
20908;SDS011;10614;53.198;6.570;2023-05-29T16:13:54;15.13;;;2.75;;
20908;SDS011;10614;53.198;6.570;2023-05-29T16:15:56;13.95;;;2.90;;
20908;SDS011;10614;53.198;6.570;2023-05-29T16:17:59;12.32;;;2.50;;
20908;SDS011;10614;53.198;6.570;2023-05-29T16:20:02;11.02;;;2.80;;
20908;SDS011;10614;53.198;6.570;2023-05-29T16:22:06;11.65;;;3.10;;
20908;SDS011;10614;53.198;6.570;2023-05-29T16:24:10;8.15;;;2.63;;
20908;SDS011;10614;53.198;6.570;2023-05-29T16:26:13;9.63;;;2.72;;
20908;SDS011;10614;53.198;6.570;2023-05-29T16:28:18;14.93;;;3.08;;
20908;SDS011;10614;53.198;6.570;2023-05-29T16:30:20;11.27;;;2.85;;
20908;SDS011;10614;53.198;6.570;2023-05-29T16:32:23;10.90;;;2.70;;
20908;SDS011;10614;53.198;6.570;2023-05-29T16:34:28;8.90;;;2.15;;
20908;SDS011;10614;53.198;6.570;2023-05-29T16:36:30;12.07;;;2.92;;
20908;SDS011;10614;53.198;6.570;2023-05-29T16:38:35;13.00;;;2.53;;
20908;SDS011;10614;53.198;6.570;2023-05-29T16:40:51;14.13;;;3.15;;
20908;SDS011;10614;53.198;6.570;2023-05-29T16:42:55;12.23;;;2.67;;
20908;SDS011;10614;53.198;6.570;2023-05-29T16:45:06;10.30;;;2.50;;
20908;SDS011;10614;53.198;6.570;2023-05-29T16:47:08;11.52;;;2.72;;
20908;SDS011;10614;53.198;6.570;2023-05-29T16:49:10;10.85;;;2.65;;
20908;SDS011;10614;53.198;6.570;2023-05-29T16:51:12;11.85;;;2.33;;
20908;SDS011;10614;53.198;6.570;2023-05-29T16:53:14;9.00;;;2.70;;
20908;SDS011;10614;53.198;6.570;2023-05-29T16:55:18;9.65;;;2.42;;
20908;SDS011;10614;53.198;6.570;2023-05-29T16:57:20;14.65;;;3.08;;
20908;SDS011;10614;53.198;6.570;2023-05-29T16:59:23;8.50;;;2.42;;
20908;SDS011;10614;53.198;6.570;2023-05-29T17:01:28;10.50;;;2.70;;
20908;SDS011;10614;53.198;6.570;2023-05-29T17:03:30;15.30;;;2.60;;
20908;SDS011;10614;53.198;6.570;2023-05-29T17:05:36;10.98;;;2.22;;
20908;SDS011;10614;53.198;6.570;2023-05-29T17:07:42;9.93;;;2.60;;
20908;SDS011;10614;53.198;6.570;2023-05-29T17:09:46;8.55;;;2.33;;
20908;SDS011;10614;53.198;6.570;2023-05-29T17:11:55;7.30;;;2.20;;
20908;SDS011;10614;53.198;6.570;2023-05-29T17:14:04;10.13;;;2.00;;
20908;SDS011;10614;53.198;6.570;2023-05-29T17:16:07;9.82;;;2.78;;
20908;SDS011;10614;53.198;6.570;2023-05-29T17:18:14;10.07;;;2.97;;
20908;SDS011;10614;53.198;6.570;2023-05-29T17:20:17;8.43;;;2.40;;
20908;SDS011;10614;53.198;6.570;2023-05-29T17:22:20;14.90;;;2.70;;
20908;SDS011;10614;53.198;6.570;2023-05-29T17:24:24;10.35;;;2.80;;
20908;SDS011;10614;53.198;6.570;2023-05-29T17:26:26;8.68;;;2.58;;
20908;SDS011;10614;53.198;6.570;2023-05-29T17:30:34;10.10;;;2.38;;
20908;SDS011;10614;53.198;6.570;2023-05-29T17:32:36;11.68;;;2.63;;
20908;SDS011;10614;53.198;6.570;2023-05-29T17:34:38;10.05;;;2.83;;
20908;SDS011;10614;53.198;6.570;2023-05-29T17:36:40;11.23;;;2.70;;
20908;SDS011;10614;53.198;6.570;2023-05-29T17:38:45;8.95;;;2.28;;
20908;SDS011;10614;53.198;6.570;2023-05-29T17:40:50;8.77;;;2.47;;
20908;SDS011;10614;53.198;6.570;2023-05-29T17:42:52;11.10;;;2.78;;
20908;SDS011;10614;53.198;6.570;2023-05-29T17:44:59;8.57;;;2.55;;
20908;SDS011;10614;53.198;6.570;2023-05-29T17:47:08;9.75;;;2.28;;
20908;SDS011;10614;53.198;6.570;2023-05-29T17:49:11;8.77;;;2.45;;
20908;SDS011;10614;53.198;6.570;2023-05-29T17:51:16;9.07;;;2.42;;
20908;SDS011;10614;53.198;6.570;2023-05-29T17:53:21;8.63;;;2.42;;
20908;SDS011;10614;53.198;6.570;2023-05-29T17:55:24;12.30;;;2.38;;
20908;SDS011;10614;53.198;6.570;2023-05-29T17:57:26;12.45;;;2.72;;
20908;SDS011;10614;53.198;6.570;2023-05-29T17:59:29;14.05;;;2.60;;
20908;SDS011;10614;53.198;6.570;2023-05-29T18:01:33;13.32;;;2.53;;
20908;SDS011;10614;53.198;6.570;2023-05-29T18:03:36;12.40;;;2.63;;
20908;SDS011;10614;53.198;6.570;2023-05-29T18:05:41;9.23;;;2.35;;
20908;SDS011;10614;53.198;6.570;2023-05-29T18:07:45;14.05;;;2.17;;
20908;SDS011;10614;53.198;6.570;2023-05-29T18:09:50;8.20;;;2.10;;
20908;SDS011;10614;53.198;6.570;2023-05-29T18:11:59;14.57;;;3.30;;
20908;SDS011;10614;53.198;6.570;2023-05-29T18:14:16;9.55;;;2.60;;
20908;SDS011;10614;53.198;6.570;2023-05-29T18:16:22;9.50;;;2.50;;
20908;SDS011;10614;53.198;6.570;2023-05-29T18:18:44;10.45;;;2.58;;
20908;SDS011;10614;53.198;6.570;2023-05-29T18:20:49;7.78;;;2.22;;
20908;SDS011;10614;53.198;6.570;2023-05-29T18:22:56;11.10;;;2.40;;
20908;SDS011;10614;53.198;6.570;2023-05-29T18:24:59;10.23;;;2.60;;
20908;SDS011;10614;53.198;6.570;2023-05-29T18:29:56;10.68;;;2.75;;
20908;SDS011;10614;53.198;6.570;2023-05-29T18:32:02;15.98;;;2.33;;
20908;SDS011;10614;53.198;6.570;2023-05-29T18:34:19;10.77;;;2.35;;
20908;SDS011;10614;53.198;6.570;2023-05-29T18:36:36;14.63;;;2.60;;
20908;SDS011;10614;53.198;6.570;2023-05-29T18:39:01;13.73;;;2.60;;
20908;SDS011;10614;53.198;6.570;2023-05-29T18:41:05;10.32;;;2.65;;
20908;SDS011;10614;53.198;6.570;2023-05-29T18:43:07;11.32;;;2.70;;
20908;SDS011;10614;53.198;6.570;2023-05-29T18:45:11;13.52;;;2.83;;
20908;SDS011;10614;53.198;6.570;2023-05-29T18:47:13;13.90;;;2.53;;
20908;SDS011;10614;53.198;6.570;2023-05-29T18:49:17;7.78;;;2.47;;
20908;SDS011;10614;53.198;6.570;2023-05-29T18:51:19;13.73;;;2.60;;
20908;SDS011;10614;53.198;6.570;2023-05-29T18:53:21;13.50;;;2.92;;
20908;SDS011;10614;53.198;6.570;2023-05-29T18:55:24;11.55;;;2.85;;
20908;SDS011;10614;53.198;6.570;2023-05-29T18:57:29;13.48;;;2.58;;
20908;SDS011;10614;53.198;6.570;2023-05-29T19:01:36;8.90;;;2.22;;
20908;SDS011;10614;53.198;6.570;2023-05-29T19:03:41;10.63;;;2.47;;
20908;SDS011;10614;53.198;6.570;2023-05-29T19:05:46;12.52;;;2.85;;
20908;SDS011;10614;53.198;6.570;2023-05-29T19:07:49;14.63;;;2.95;;
20908;SDS011;10614;53.198;6.570;2023-05-29T19:09:51;14.60;;;2.60;;
20908;SDS011;10614;53.198;6.570;2023-05-29T19:11:57;11.85;;;2.80;;
20908;SDS011;10614;53.198;6.570;2023-05-29T19:13:59;10.23;;;2.38;;
20908;SDS011;10614;53.198;6.570;2023-05-29T19:16:05;16.77;;;2.97;;
20908;SDS011;10614;53.198;6.570;2023-05-29T19:18:11;9.10;;;2.97;;
20908;SDS011;10614;53.198;6.570;2023-05-29T19:20:15;10.88;;;2.90;;
20908;SDS011;10614;53.198;6.570;2023-05-29T19:22:18;10.55;;;2.53;;
20908;SDS011;10614;53.198;6.570;2023-05-29T19:24:20;12.80;;;2.58;;
20908;SDS011;10614;53.198;6.570;2023-05-29T19:26:22;10.38;;;2.78;;
20908;SDS011;10614;53.198;6.570;2023-05-29T19:28:24;10.65;;;2.42;;
20908;SDS011;10614;53.198;6.570;2023-05-29T19:30:26;16.27;;;2.85;;
20908;SDS011;10614;53.198;6.570;2023-05-29T19:32:28;14.80;;;3.20;;
20908;SDS011;10614;53.198;6.570;2023-05-29T19:34:30;12.60;;;2.83;;
20908;SDS011;10614;53.198;6.570;2023-05-29T19:36:33;12.55;;;3.10;;
20908;SDS011;10614;53.198;6.570;2023-05-29T19:38:38;12.73;;;2.95;;
20908;SDS011;10614;53.198;6.570;2023-05-29T19:40:40;13.30;;;3.20;;
20908;SDS011;10614;53.198;6.570;2023-05-29T19:42:43;12.27;;;3.13;;
20908;SDS011;10614;53.198;6.570;2023-05-29T19:44:45;11.15;;;3.38;;
20908;SDS011;10614;53.198;6.570;2023-05-29T19:46:47;14.30;;;2.92;;
20908;SDS011;10614;53.198;6.570;2023-05-29T19:48:50;19.00;;;3.10;;
20908;SDS011;10614;53.198;6.570;2023-05-29T19:50:52;14.25;;;3.55;;
20908;SDS011;10614;53.198;6.570;2023-05-29T19:52:55;11.07;;;2.83;;
20908;SDS011;10614;53.198;6.570;2023-05-29T19:55:02;12.70;;;2.85;;
20908;SDS011;10614;53.198;6.570;2023-05-29T20:05:47;12.00;;;3.38;;
20908;SDS011;10614;53.198;6.570;2023-05-29T20:08:08;12.05;;;2.95;;
20908;SDS011;10614;53.198;6.570;2023-05-29T20:10:12;12.05;;;3.03;;
20908;SDS011;10614;53.198;6.570;2023-05-29T20:12:15;9.20;;;2.42;;
20908;SDS011;10614;53.198;6.570;2023-05-29T20:14:17;13.13;;;3.00;;